createdAt,value
2022-11-16T00:01:31.399Z,25.77
2022-11-16T00:04:00.602Z,29.17
2022-11-16T00:06:28.548Z,24.13
2022-11-16T00:09:18.249Z,27.43
2022-11-16T00:11:45.463Z,30.40
2022-11-16T00:14:12.033Z,30.83
2022-11-16T00:16:38.567Z,27.60
2022-11-16T00:19:06.638Z,24.03
2022-11-16T00:21:33.927Z,23.23
2022-11-16T00:24:01.121Z,21.93
2022-11-16T00:26:27.599Z,22.63
2022-11-16T00:28:54.550Z,21.70
2022-11-16T00:31:22.501Z,22.80
2022-11-16T00:33:49.793Z,27.03
2022-11-16T00:36:17.077Z,22.33
2022-11-16T00:38:44.151Z,23.93
2022-11-16T00:41:10.589Z,24.27
2022-11-16T00:43:37.645Z,19.37
2022-11-16T00:46:04.624Z,24.47
2022-11-16T00:48:31.735Z,21.60
2022-11-16T00:50:58.464Z,24.80
2022-11-16T00:53:24.971Z,21.73
2022-11-16T00:55:51.436Z,49.33
2022-11-16T00:58:17.945Z,38.33
2022-11-16T01:00:44.491Z,42.63
2022-11-16T01:03:11.162Z,141.23
2022-11-16T01:05:38.161Z,157.60
2022-11-16T01:08:05.593Z,50.20
2022-11-16T01:10:32.225Z,37.07
2022-11-16T01:12:58.694Z,25.83
2022-11-16T01:15:27.275Z,22.87
2022-11-16T01:17:55.699Z,25.60
2022-11-16T01:20:26.690Z,23.73
2022-11-16T01:22:53.474Z,20.07
2022-11-16T01:25:20.370Z,20.00
2022-11-16T01:27:47.019Z,18.90
2022-11-16T01:30:15.223Z,19.80
2022-11-16T01:32:41.919Z,19.27
2022-11-16T01:35:14.116Z,19.97
2022-11-16T01:37:40.634Z,22.57
2022-11-16T01:40:08.399Z,20.43
2022-11-16T01:42:34.889Z,19.73
2022-11-16T01:45:33.445Z,21.93
2022-11-16T01:48:00.320Z,21.37
2022-11-16T01:50:27.106Z,19.53
2022-11-16T01:53:00.091Z,20.23
2022-11-16T01:55:29.676Z,20.23
2022-11-16T01:57:56.736Z,24.60
2022-11-16T02:00:23.420Z,19.57
2022-11-16T02:02:50.660Z,23.30
2022-11-16T02:05:25.850Z,19.57
2022-11-16T02:10:53.112Z,30.60
2022-11-16T02:17:31.569Z,19.90
2022-11-16T02:22:56.809Z,17.70
2022-11-16T02:28:23.594Z,16.20
2022-11-16T02:30:56.229Z,19.03
2022-11-16T02:33:34.758Z,16.07
2022-11-16T02:36:06.080Z,19.93
2022-11-16T02:38:41.277Z,17.97
2022-11-16T02:41:31.573Z,20.00
2022-11-16T02:44:11.465Z,19.10
2022-11-16T02:46:43.970Z,16.13
2022-11-16T02:49:18.321Z,18.00
2022-11-16T02:51:49.119Z,17.67
2022-11-16T02:54:20.118Z,16.77
2022-11-16T02:59:17.932Z,19.63
2022-11-16T03:01:58.674Z,15.27
2022-11-16T03:04:42.496Z,17.73
2022-11-16T03:07:14.316Z,16.33
2022-11-16T03:09:44.818Z,17.17
2022-11-16T03:12:17.836Z,17.07
2022-11-16T03:14:51.583Z,15.07
2022-11-16T03:17:28.557Z,19.30
2022-11-16T03:20:17.735Z,15.97
2022-11-16T03:22:53.606Z,22.20
2022-11-16T03:25:27.070Z,18.47
2022-11-16T03:28:06.262Z,18.13
2022-11-16T03:30:41.724Z,18.13
2022-11-16T03:35:06.004Z,15.87
2022-11-16T03:37:34.528Z,19.33
2022-11-16T03:40:03.975Z,16.67
2022-11-16T03:42:32.486Z,19.13
2022-11-16T03:44:59.994Z,20.77
2022-11-16T03:47:26.522Z,16.23
2022-11-16T03:49:53.009Z,21.47
2022-11-16T03:52:19.654Z,19.77
2022-11-16T03:54:46.124Z,19.23
2022-11-16T03:57:16.721Z,18.43
2022-11-16T03:59:43.436Z,20.20
2022-11-16T04:02:11.051Z,24.33
2022-11-16T04:04:56.273Z,19.77
2022-11-16T04:07:41.178Z,23.67
2022-11-16T04:10:28.051Z,18.03
2022-11-16T04:13:13.416Z,24.50
2022-11-16T04:15:58.315Z,19.83
2022-11-16T04:18:43.135Z,20.73
2022-11-16T04:21:43.168Z,19.87
2022-11-16T04:24:16.311Z,20.13
2022-11-16T04:27:07.601Z,21.33
2022-11-16T04:29:35.524Z,22.07
2022-11-16T04:32:20.532Z,23.17
2022-11-16T04:35:05.487Z,20.83
2022-11-16T04:37:51.630Z,18.50
2022-11-16T04:40:27.161Z,18.57
2022-11-16T04:42:59.484Z,20.70
2022-11-16T04:45:45.461Z,19.93
2022-11-16T04:48:14.053Z,21.73
2022-11-16T04:50:41.147Z,22.13
2022-11-16T04:53:08.266Z,25.70
2022-11-16T04:55:35.274Z,21.77
2022-11-16T04:58:02.122Z,23.47
2022-11-16T05:00:29.553Z,20.47
2022-11-16T05:03:00.991Z,22.77
2022-11-16T05:05:28.261Z,19.83
2022-11-16T05:07:54.971Z,22.87
2022-11-16T05:10:21.456Z,19.67
2022-11-16T05:12:47.938Z,22.20
2022-11-16T05:15:16.789Z,21.30
2022-11-16T05:17:43.280Z,24.30
2022-11-16T05:20:28.855Z,23.43
2022-11-16T05:22:57.301Z,21.73
2022-11-16T05:25:24.519Z,21.10
2022-11-16T05:27:50.985Z,22.90
2022-11-16T05:30:18.218Z,23.47
2022-11-16T05:32:44.700Z,27.37
2022-11-16T05:35:11.177Z,26.57
2022-11-16T05:37:37.656Z,22.13
2022-11-16T05:40:05.474Z,22.77
2022-11-16T05:42:31.967Z,22.77
2022-11-16T05:44:58.445Z,23.63
2022-11-16T05:47:24.958Z,22.60
2022-11-16T05:49:51.454Z,25.97
2022-11-16T05:52:17.961Z,25.87
2022-11-16T05:54:44.508Z,23.70
2022-11-16T05:57:10.978Z,25.83
2022-11-16T05:59:37.462Z,28.80
2022-11-16T06:02:04.090Z,26.13
2022-11-16T06:04:30.582Z,25.03
2022-11-16T06:06:57.109Z,29.53
2022-11-16T06:09:23.657Z,27.60
2022-11-16T06:11:50.135Z,27.33
2022-11-16T06:14:16.656Z,24.83
2022-11-16T06:16:43.133Z,31.53
2022-11-16T06:19:09.641Z,29.83
2022-11-16T06:21:36.117Z,33.13
2022-11-16T06:24:08.052Z,26.80
2022-11-16T06:26:34.945Z,27.10
2022-11-16T06:29:01.465Z,25.97
2022-11-16T06:31:27.939Z,27.47
2022-11-16T06:33:54.428Z,26.10
2022-11-16T06:36:20.915Z,23.00
2022-11-16T06:38:47.395Z,23.57
2022-11-16T06:41:13.857Z,22.97
2022-11-16T06:43:40.352Z,26.93
2022-11-16T06:46:06.846Z,20.40
2022-11-16T06:48:33.730Z,27.47
2022-11-16T06:51:00.812Z,22.20
2022-11-16T06:53:29.381Z,21.17
2022-11-16T06:56:04.857Z,22.00
2022-11-16T06:58:33.093Z,22.80
2022-11-16T07:01:08.259Z,22.87
2022-11-16T07:03:34.850Z,22.33
2022-11-16T07:06:10.527Z,23.67
2022-11-16T07:08:37.693Z,21.57
2022-11-16T07:11:06.258Z,26.50
2022-11-16T07:13:34.618Z,23.07
2022-11-16T07:16:10.047Z,24.80
2022-11-16T07:18:41.310Z,25.87
2022-11-16T07:21:16.178Z,26.60
2022-11-16T07:23:43.399Z,26.53
2022-11-16T07:26:10.853Z,22.40
2022-11-16T07:28:39.143Z,23.60
2022-11-16T07:31:13.600Z,22.77
2022-11-16T07:33:40.668Z,20.77
2022-11-16T07:36:13.971Z,23.40
2022-11-16T07:38:40.995Z,21.33
2022-11-16T07:41:19.649Z,23.10
2022-11-16T07:43:52.561Z,20.97
2022-11-16T07:49:19.446Z,18.77
2022-11-16T07:51:46.126Z,19.87
2022-11-16T07:54:14.033Z,22.43
2022-11-16T07:56:41.334Z,22.20
2022-11-16T07:59:08.329Z,25.10
2022-11-16T08:01:37.876Z,22.93
2022-11-16T08:04:04.409Z,27.23
2022-11-16T08:06:31.547Z,29.70
2022-11-16T08:08:59.311Z,29.20
2022-11-16T08:11:26.412Z,29.07
2022-11-16T08:13:53.199Z,33.03
2022-11-16T08:16:22.356Z,30.13
2022-11-16T08:18:49.097Z,27.50
2022-11-16T08:21:17.859Z,33.10
2022-11-16T08:28:58.004Z,36.13
2022-11-16T08:31:28.262Z,35.23
2022-11-16T08:33:55.779Z,40.63
2022-11-16T08:36:22.276Z,35.33
2022-11-16T08:38:51.051Z,36.80
2022-11-16T08:41:18.844Z,36.97
2022-11-16T08:43:49.846Z,36.77
2022-11-16T08:46:17.016Z,42.03
2022-11-16T08:48:44.051Z,34.67
2022-11-16T08:51:18.471Z,34.33
2022-11-16T08:53:47.293Z,38.87
2022-11-16T08:56:14.038Z,40.47
2022-11-16T08:58:43.013Z,39.63
2022-11-16T09:01:16.274Z,40.93
2022-11-16T09:03:44.121Z,37.23
2022-11-16T09:06:11.975Z,42.93
2022-11-16T09:08:41.607Z,47.10
2022-11-16T09:11:15.341Z,49.77
2022-11-16T09:13:43.462Z,46.63
2022-11-16T09:16:10.570Z,40.33
2022-11-16T09:18:37.801Z,41.13
2022-11-16T09:21:04.534Z,39.53
2022-11-16T09:23:31.086Z,40.20
2022-11-16T09:26:03.098Z,32.87
2022-11-16T09:28:29.891Z,45.27
2022-11-16T09:31:03.586Z,40.70
2022-11-16T09:33:32.768Z,39.90
2022-11-16T09:36:08.658Z,43.47
2022-11-16T09:39:13.262Z,40.57
2022-11-16T09:47:44.803Z,39.03
2022-11-16T09:51:02.179Z,39.33
2022-11-16T09:53:46.674Z,44.47
2022-11-16T09:56:31.017Z,42.13
2022-11-16T09:59:24.788Z,38.33
2022-11-16T10:02:35.919Z,38.20
2022-11-16T10:06:04.780Z,31.97
2022-11-16T10:08:55.794Z,33.40
2022-11-16T10:12:06.162Z,32.57
2022-11-16T10:15:03.995Z,38.47
2022-11-16T10:19:27.011Z,32.07
2022-11-16T10:25:24.343Z,33.50
2022-11-16T11:06:31.267Z,28.07
2022-11-16T11:09:26.562Z,35.43
2022-11-16T11:12:37.207Z,28.20
2022-11-16T11:15:28.327Z,28.30
2022-11-16T11:18:29.022Z,24.43
2022-11-16T11:23:55.397Z,29.63
2022-11-16T11:26:40.952Z,30.77
2022-11-16T11:30:18.857Z,31.33
2022-11-16T11:32:46.038Z,31.03
2022-11-16T11:35:30.592Z,29.63
2022-11-16T11:38:08.019Z,34.67
2022-11-16T11:40:35.540Z,30.63
2022-11-16T11:43:05.681Z,32.93
2022-11-16T11:46:40.191Z,29.13
2022-11-16T11:49:41.462Z,29.10
2022-11-16T11:52:26.642Z,30.03
2022-11-16T11:54:55.491Z,29.30
2022-11-16T11:57:24.248Z,32.67
2022-11-16T11:59:54.327Z,30.87
2022-11-16T12:04:46.003Z,30.33
2022-11-16T12:10:13.472Z,30.40
2022-11-16T12:13:47.993Z,32.07
2022-11-16T12:18:21.755Z,27.50
2022-11-16T12:24:03.794Z,25.27
2022-11-16T12:29:30.439Z,28.23
2022-11-16T12:35:07.549Z,28.20
2022-11-16T12:38:49.219Z,28.50
2022-11-16T12:41:57.399Z,27.03
2022-11-16T12:46:59.263Z,27.27
2022-11-16T12:50:34.745Z,23.53
2022-11-16T12:59:02.206Z,28.37
2022-11-16T13:01:46.121Z,24.33
2022-11-16T13:04:25.116Z,31.17
2022-11-16T13:07:13.453Z,26.07
2022-11-16T13:10:42.217Z,28.13
2022-11-16T13:13:37.783Z,27.50
2022-11-16T13:16:07.322Z,27.17
2022-11-16T13:18:40.363Z,27.73
2022-11-16T13:22:17.245Z,26.90
2022-11-16T13:25:12.047Z,28.07
2022-11-16T13:27:54.029Z,22.80
2022-11-16T13:30:35.643Z,27.97
2022-11-16T13:33:50.718Z,31.03
2022-11-16T13:38:52.128Z,28.10
2022-11-16T13:41:36.124Z,30.83
2022-11-16T13:45:59.932Z,25.87
2022-11-16T13:48:37.669Z,25.80
2022-11-16T13:51:16.557Z,29.60
2022-11-16T13:56:50.636Z,27.67
2022-11-16T13:59:27.496Z,34.13
2022-11-16T14:01:58.622Z,31.90
2022-11-16T14:05:01.373Z,30.10
2022-11-16T14:07:34.195Z,27.87
2022-11-16T14:10:04.852Z,31.03
2022-11-16T14:13:36.079Z,31.50
2022-11-16T14:18:37.462Z,29.50
2022-11-16T14:23:48.918Z,28.20
2022-11-16T14:29:42.648Z,29.70
2022-11-16T14:32:29.464Z,30.40
2022-11-16T14:34:59.858Z,26.43
2022-11-16T14:37:37.994Z,37.73
2022-11-16T14:40:22.425Z,31.90
2022-11-16T14:46:08.710Z,32.83
2022-11-16T14:48:44.333Z,35.53
2022-11-16T14:51:19.794Z,35.43
2022-11-16T14:54:15.172Z,36.63
2022-11-16T14:57:04.008Z,34.00
2022-11-16T14:59:31.402Z,38.50
2022-11-16T15:02:13.817Z,39.30
2022-11-16T15:04:40.359Z,40.87
2022-11-16T15:07:07.653Z,44.10
2022-11-16T15:09:51.709Z,45.03
2022-11-16T15:12:42.133Z,39.97
2022-11-16T15:15:37.825Z,38.77
2022-11-16T15:18:12.161Z,38.23
2022-11-16T15:20:50.149Z,36.33
2022-11-16T15:23:19.502Z,45.70
2022-11-16T15:25:58.617Z,80.27
2022-11-16T15:28:32.431Z,84.73
2022-11-16T15:31:05.435Z,55.13
2022-11-16T15:33:40.702Z,39.73
2022-11-16T15:37:11.690Z,47.23
2022-11-16T15:39:39.166Z,45.47
2022-11-16T15:42:07.373Z,35.00
2022-11-16T15:44:34.069Z,38.57
2022-11-16T15:47:03.182Z,34.67
2022-11-16T15:49:39.383Z,118.97
2022-11-16T15:52:06.375Z,73.53
2022-11-16T15:55:02.923Z,62.07
2022-11-16T15:57:29.564Z,87.00
2022-11-16T15:59:57.059Z,64.17
2022-11-16T16:02:30.879Z,51.57
2022-11-16T16:04:57.501Z,43.13
2022-11-16T16:07:42.377Z,40.30
2022-11-16T16:12:50.803Z,36.80
2022-11-16T16:15:32.948Z,30.47
2022-11-16T16:18:01.074Z,36.17
2022-11-16T16:20:31.317Z,32.37
2022-11-16T16:23:12.176Z,52.30
2022-11-16T16:25:38.662Z,48.70
2022-11-16T16:28:05.476Z,41.17
2022-11-16T16:30:33.949Z,38.07
2022-11-16T16:33:01.032Z,34.97
2022-11-16T16:35:27.534Z,36.30
2022-11-16T16:38:42.463Z,35.43
2022-11-16T16:41:23.778Z,33.60
2022-11-16T16:43:50.986Z,38.23
2022-11-16T16:46:17.450Z,44.50
2022-11-16T16:48:44.855Z,43.20
2022-11-16T16:51:12.440Z,73.90
2022-11-16T16:53:39.167Z,51.20
2022-11-16T16:56:13.907Z,39.40
2022-11-16T16:58:40.524Z,29.93
2022-11-16T17:01:07.142Z,33.83
2022-11-16T17:03:34.065Z,33.87
2022-11-16T17:06:01.275Z,29.70
2022-11-16T17:08:33.050Z,36.40
2022-11-16T17:10:59.522Z,37.80
2022-11-16T17:13:25.987Z,32.40
2022-11-16T17:15:52.488Z,29.80
2022-11-16T17:18:18.948Z,40.30
2022-11-16T17:20:45.692Z,33.63
2022-11-16T17:23:12.260Z,36.00
2022-11-16T17:25:38.787Z,32.43
2022-11-16T17:28:05.265Z,41.70
2022-11-16T17:30:31.744Z,32.10
2022-11-16T17:32:58.197Z,38.13
2022-11-16T17:35:24.667Z,28.97
2022-11-16T17:37:51.519Z,29.97
2022-11-16T17:40:18.056Z,28.13
2022-11-16T17:42:44.522Z,29.30
2022-11-16T17:45:11.287Z,32.17
2022-11-16T17:47:38.386Z,28.23
2022-11-16T17:50:05.643Z,30.80
2022-11-16T17:52:32.128Z,32.00
2022-11-16T17:54:58.602Z,28.17
2022-11-16T17:57:25.063Z,36.37
2022-11-16T17:59:51.532Z,36.13
2022-11-16T18:02:17.993Z,32.63
2022-11-16T18:04:49.629Z,37.40
2022-11-16T18:07:17.337Z,35.97
2022-11-16T18:09:43.851Z,30.60
2022-11-16T18:12:10.373Z,37.00
2022-11-16T18:14:36.821Z,37.13
2022-11-16T18:17:03.298Z,33.63
2022-11-16T18:19:29.760Z,33.90
2022-11-16T18:21:56.219Z,31.73
2022-11-16T18:24:22.689Z,30.57
2022-11-16T18:26:49.139Z,29.70
2022-11-16T18:29:17.895Z,50.93
2022-11-16T18:31:44.348Z,56.87
2022-11-16T18:34:14.660Z,39.33
2022-11-16T18:36:41.165Z,33.73
2022-11-16T18:39:07.634Z,33.13
2022-11-16T18:41:34.161Z,38.60
2022-11-16T18:44:01.933Z,36.50
2022-11-16T18:46:31.702Z,39.97
2022-11-16T18:48:58.814Z,48.07
2022-11-16T18:51:27.482Z,41.90
2022-11-16T18:53:54.609Z,44.17
2022-11-16T18:56:22.005Z,36.70
2022-11-16T18:58:51.233Z,48.27
2022-11-16T19:01:22.954Z,39.67
2022-11-16T19:03:51.385Z,33.20
2022-11-16T19:06:18.342Z,33.10
2022-11-16T19:08:50.407Z,34.90
2022-11-16T19:11:21.101Z,52.67
2022-11-16T19:14:00.537Z,52.87
2022-11-16T19:16:27.236Z,65.37
2022-11-16T19:18:53.712Z,54.13
2022-11-16T19:21:21.158Z,34.83
2022-11-16T19:23:57.305Z,33.93
2022-11-16T19:26:26.741Z,32.13
2022-11-16T19:28:54.169Z,35.43
2022-11-16T19:31:31.424Z,37.40
2022-11-16T19:34:05.235Z,45.77
2022-11-16T19:36:34.237Z,64.57
2022-11-16T19:39:00.999Z,67.33
2022-11-16T19:41:28.025Z,69.93
2022-11-16T19:43:58.898Z,69.43
2022-11-16T19:46:35.805Z,52.90
2022-11-16T19:49:02.661Z,42.10
2022-11-16T19:51:32.392Z,40.03
2022-11-16T19:54:01.047Z,46.67
2022-11-16T19:56:28.210Z,46.27
2022-11-16T19:58:54.701Z,54.43
2022-11-16T20:01:28.241Z,51.63
2022-11-16T20:03:58.055Z,60.57
2022-11-16T20:06:31.004Z,56.63
2022-11-16T20:09:03.130Z,54.73
2022-11-16T20:11:33.310Z,41.27
2022-11-16T20:14:00.983Z,46.93
2022-11-16T20:16:38.433Z,48.90
2022-11-16T20:19:07.366Z,45.03
2022-11-16T20:21:37.711Z,37.97
2022-11-16T20:24:07.244Z,39.37
2022-11-16T20:26:35.940Z,45.50
2022-11-16T20:29:03.174Z,57.40
2022-11-16T20:31:32.325Z,54.40
2022-11-16T20:34:05.040Z,54.67
2022-11-16T20:36:33.303Z,40.20
2022-11-16T20:39:00.626Z,34.97
2022-11-16T20:41:30.266Z,41.33
2022-11-16T20:43:59.367Z,40.40
2022-11-16T20:46:29.324Z,42.23
2022-11-16T20:48:58.535Z,37.70
2022-11-16T20:51:25.453Z,38.03
2022-11-16T20:53:51.951Z,34.20
2022-11-16T20:56:20.385Z,36.73
2022-11-16T20:58:48.544Z,45.73
2022-11-16T21:01:27.524Z,41.53
2022-11-16T21:03:59.653Z,127.03
2022-11-16T21:06:26.570Z,59.17
2022-11-16T21:08:53.774Z,56.73
2022-11-16T21:11:24.375Z,56.17
2022-11-16T21:14:09.973Z,35.63
2022-11-16T21:16:36.795Z,31.10
2022-11-16T21:19:04.728Z,37.23
2022-11-16T21:21:31.849Z,36.93
2022-11-16T21:23:58.315Z,44.27
2022-11-16T21:26:31.313Z,37.07
2022-11-16T21:28:59.687Z,36.87
2022-11-16T21:31:32.196Z,38.93
2022-11-16T21:34:02.542Z,35.03
2022-11-16T21:36:31.566Z,32.87
2022-11-16T21:38:58.399Z,42.93
2022-11-16T21:41:25.646Z,48.63
2022-11-16T21:43:52.398Z,145.03
2022-11-16T21:46:25.495Z,90.20
2022-11-16T21:48:54.600Z,98.63
2022-11-16T21:51:24.404Z,117.90
2022-11-16T21:53:51.112Z,48.83
2022-11-16T21:56:21.548Z,49.97
2022-11-16T21:58:49.615Z,69.60
2022-11-16T22:01:16.524Z,143.30
2022-11-16T22:03:43.958Z,112.83
2022-11-16T22:06:33.518Z,130.10
2022-11-16T22:09:00.600Z,101.03
2022-11-16T22:11:27.314Z,266.33
2022-11-16T22:13:53.799Z,146.13
2022-11-16T22:16:22.329Z,171.13
2022-11-16T22:18:49.413Z,116.83
2022-11-16T22:21:15.866Z,103.43
2022-11-16T22:23:42.628Z,95.50
2022-11-16T22:26:15.145Z,98.70
2022-11-16T22:28:41.801Z,106.97
2022-11-16T22:31:14.409Z,152.30
2022-11-16T22:33:41.437Z,99.57
2022-11-16T22:36:10.104Z,64.00
2022-11-16T22:38:37.115Z,42.70
2022-11-16T22:41:04.159Z,47.13
2022-11-16T22:43:31.715Z,55.77
2022-11-16T22:46:00.451Z,53.60
2022-11-16T22:48:36.258Z,44.20
2022-11-16T22:51:21.988Z,47.07
2022-11-16T22:54:03.275Z,60.73
2022-11-16T22:56:32.137Z,48.47
2022-11-16T22:59:00.062Z,37.83
2022-11-16T23:01:26.517Z,48.67
2022-11-16T23:03:54.940Z,52.57
2022-11-16T23:06:21.408Z,56.03
2022-11-16T23:08:47.858Z,46.90
2022-11-16T23:11:36.426Z,42.17
2022-11-16T23:14:23.413Z,42.10
2022-11-16T23:16:50.050Z,83.30
2022-11-16T23:19:38.310Z,93.57
2022-11-16T23:22:24.799Z,163.07
2022-11-16T23:25:09.455Z,162.93
2022-11-16T23:30:35.050Z,157.40
2022-11-16T23:33:02.107Z,70.37
2022-11-16T23:35:28.577Z,91.83
2022-11-16T23:38:01.294Z,82.70
2022-11-16T23:40:33.024Z,71.57
2022-11-16T23:43:17.709Z,61.97
2022-11-16T23:45:45.441Z,69.17
2022-11-16T23:48:15.368Z,63.27
2022-11-16T23:50:43.298Z,70.37
2022-11-16T23:53:10.707Z,62.80
2022-11-16T23:55:39.368Z,61.07
2022-11-16T23:58:10.496Z,54.13
